Latest Weather Observations for Tasman Island

IDT60901

Issued at 5:51 pm EST Tuesday 26 May 2020 (issued every 10 minutes, with the page automatically refreshed every 10 minutes)

About weather observations | Map of Hobart area stations | Latest observations for Hobart area | Other Formats
Station Details ID: 094155 Name: TASMAN ISLAND Lat: -43.24 Lon: 148.00 Height: 240.0 m
Data from the previous 72 hours. | See also: Recent months at Tasman Island
Date/Time
EST
Temp
°C
App
Temp
°C
Dew
Point
°C
Rel
Hum
%
Delta-T
°C
Wind Press
QNH
hPa
Press
MSL
hPa
Rain since
9am
mm
Dir  Spd
km/h
Gust
km/h
Spd
kts
Gust
kts
26/05:30pm 9.7 1.0 7.5 86 1.1 NNE 43 56 23 30 1023.9 1024.0 0.0
26/05:00pm 9.6 0.3 7.4 86 1.1 NNE 46 63 25 34 1023.8 1023.9 0.0
26/04:30pm 9.6 0.6 7.4 86 1.1 NNE 44 57 24 31 1023.9 1024.0 0.0
26/04:00pm 9.7 0.3 7.3 85 1.1 NNE 46 57 25 31 1024.1 1024.2 0.0
26/03:30pm 9.9 1.5 7.2 83 1.3 NNE 41 50 22 27 1024.2 1024.4 0.0
26/03:00pm 9.9 1.8 6.8 81 1.5 NNE 39 48 21 26 1024.3 1024.5 0.0
26/02:30pm 10.0 1.5 6.9 81 1.5 NNE 41 52 22 28 1024.3 1024.5 0.0
26/02:00pm 9.9 1.1 7.2 83 1.3 NNE 43 56 23 30 1024.4 1024.6 0.0
26/01:34pm 9.8 1.7 6.9 82 1.4 NNE 39 57 21 31 1024.6 1024.8 0.0
26/01:30pm 9.8 1.2 6.7 81 1.5 NNE 41 59 22 32 1024.7 1024.9 0.0
26/01:06pm 9.8 2.0 6.7 81 1.5 NNE 37 57 20 31 1024.9 1025.1 0.0
26/01:00pm 9.5 0.5 6.6 82 1.4 NNE 43 59 23 32 1024.9 1025.1 0.0
26/12:37pm 9.5 0.5 6.4 81 1.5 NNE 43 61 23 33 1025.0 1025.2 0.0
26/12:30pm 9.4 -0.2 6.3 81 1.5 NNE 46 61 25 33 1025.0 1025.2 0.0
26/12:04pm 9.4 0.8 6.3 81 1.5 NNE 41 63 22 34 1025.5 1025.7 0.0
26/12:00pm 9.4 0.8 6.3 81 1.4 NNE 41 57 22 31 1025.6 1025.8 0.0
26/11:30am 9.2 0.6 6.3 82 1.4 NNE 41 54 22 29 1026.1 1026.3 0.0
26/11:00am 9.1 0.8 6.2 82 1.3 NNE 39 54 21 29 1026.7 1026.9 0.0
26/10:57am 9.0 1.4 5.9 81 1.4 NNE 35 54 19 29 1026.8 1027.0 0.0
26/10:30am 9.1 2.2 6.4 83 1.3 NNE 32 44 17 24 1027.3 1027.5 0.0
26/10:00am 8.8 0.8 5.7 81 1.4 NNE 37 50 20 27 1027.2 1027.4 0.0
26/09:30am 8.8 1.2 5.7 81 1.4 NNE 35 48 19 26 1027.3 1027.5 0.0
26/09:00am 8.6 1.4 5.7 82 1.3 NNE 33 50 18 27 1027.4 1027.6 0.0
26/08:30am 7.7 0.5 5.7 87 0.9 NNE 33 48 18 26 1027.3 1027.5 0.0
26/08:00am 7.7 -0.3 5.7 87 0.9 NNE 37 57 20 31 1027.1 1027.3 0.0
26/07:33am 7.6 0.5 5.6 87 0.9 NNE 32 50 17 27 1027.3 1027.5 0.0
26/07:30am 7.6 0.5 5.4 86 1.0 NNE 32 50 17 27 1027.3 1027.5 0.0
26/07:27am 7.6 0.9 5.4 86 1.0 NNE 30 50 16 27 1027.3 1027.5 0.0
26/07:00am 7.5 0.4 5.3 86 1.0 NNE 32 44 17 24 1027.2 1027.4 0.0
26/06:45am 7.6 0.9 5.4 86 1.0 NNE 30 50 16 27 1027.3 1027.5 0.0
26/06:30am 7.5 0.7 5.1 85 1.1 NNE 30 43 16 23 1027.3 1027.5 0.0
26/06:00am 7.6 1.2 5.4 86 1.0 NNE 28 41 15 22 1027.6 1027.7 0.0
26/05:30am 7.8 2.2 5.4 85 1.1 NNE 24 35 13 19 1028.0 1028.2 0.0
26/05:00am 7.6 2.4 5.4 86 1.0 NNE 22 33 12 18 1027.9 1028.1 0.0
26/04:30am 7.5 2.3 5.5 87 0.9 NNE 22 32 12 17 1027.8 1028.0 0.0
26/04:00am 7.5 2.7 5.6 88 0.9 N 20 30 11 16 1027.8 1028.0 0.0
26/03:30am 7.6 2.5 5.9 89 0.8 N 22 32 12 17 1027.7 1027.8 0.0
26/03:00am 7.5 2.8 6.0 90 0.7 N 20 32 11 17 1027.8 1028.0 0.0
26/02:30am 7.3 2.5 5.6 89 0.8 N 20 30 11 16 1028.0 1028.2 0.0
26/02:00am 7.3 2.7 5.6 89 0.8 N 19 26 10 14 1028.0 1028.2 0.0
26/01:30am 7.6 2.8 5.6 87 0.9 N 20 30 11 16 1028.1 1028.3 0.0
26/01:00am 7.6 1.5 4.9 83 1.2 NNE 26 35 14 19 1028.2 1028.4 0.0
26/12:30am 7.5 1.4 5.0 84 1.1 NNE 26 37 14 20 1028.2 1028.4 0.0
26/12:00am 7.4 1.0 5.0 85 1.1 NNE 28 43 15 23 1027.9 1028.1 0.0
 
Date/Time
EST
Temp
°C
App
Temp
°C
Dew
Point
°C
Rel
Hum
%
Delta-T
°C
Wind Press
QNH
hPa
Press
MSL
hPa
Rain since
9am
mm
Dir  Spd
km/h
Gust
km/h
Spd
kts
Gust
kts
25/11:30pm 7.2 1.5 4.7 84 1.1 NNE 24 35 13 19 1028.1 1028.3 0.0
25/11:00pm 7.2 1.8 4.7 84 1.1 NNE 22 33 12 18 1028.3 1028.5 0.0
25/10:30pm 7.0 2.2 4.7 85 1.0 NNE 19 28 10 15 1028.3 1028.5 0.0
25/10:00pm 7.1 2.3 4.6 84 1.1 NNE 19 28 10 15 1028.5 1028.7 0.0
25/09:30pm 7.0 2.6 4.7 85 1.0 NNE 17 24 9 13 1028.7 1028.9 0.0
25/09:00pm 6.7 2.6 4.2 84 1.1 NNE 15 24 8 13 1028.8 1029.0 0.0
25/08:30pm 6.9 3.2 4.2 83 1.2 NNE 13 20 7 11 1028.9 1029.1 0.0
25/08:00pm 7.1 4.2 4.4 83 1.2 NNE 9 20 5 11 1028.7 1028.9 0.0
25/07:30pm 7.0 3.2 4.1 82 1.3 NNE 13 22 7 12 1028.6 1028.8 0.0
25/07:00pm 6.9 3.9 4.0 82 1.3 NE 9 19 5 10 1028.4 1028.6 0.0
25/06:30pm 6.8 3.8 3.9 82 1.3 NE 9 19 5 10 1028.1 1028.3 0.0
25/06:00pm 6.8 3.8 3.9 82 1.2 NE 9 20 5 11 1027.7 1027.8 0.0
25/05:30pm 7.0 4.0 4.0 81 1.3 N 9 17 5 9 1027.6 1027.7 0.0
25/05:00pm 7.1 5.4 3.9 80 1.4 NW 2 6 1 3 1027.7 1027.8 0.0
25/04:30pm 7.3 5.2 4.1 80 1.4 NE 4 9 2 5 1027.6 1027.7 0.0
25/04:00pm 7.3 4.9 4.3 81 1.3 N 6 9 3 5 1027.6 1027.7 0.0
25/03:30pm 7.4 4.9 4.0 79 1.5 NNE 6 9 3 5 1027.3 1027.5 0.0
25/03:00pm 7.7 5.1 4.3 79 1.5 N 7 11 4 6 1026.9 1027.1 0.0
25/02:30pm 8.3 5.0 4.7 78 1.6 N 11 19 6 10 1026.8 1027.0 0.0
25/02:00pm 8.1 5.7 4.3 77 1.7 N 6 13 3 7 1026.7 1026.9 0.0
25/01:30pm 8.3 5.9 4.5 77 1.7 NNE 6 13 3 7 1026.6 1026.8 0.0
25/01:00pm 8.0 5.3 3.7 74 1.9 NNE 7 15 4 8 1026.6 1026.8 0.0
25/12:30pm 8.6 6.7 4.8 77 1.7 E 4 7 2 4 1026.9 1027.1 0.0
25/12:00pm 8.3 5.9 4.3 76 1.8 ESE 6 11 3 6 1027.2 1027.4 0.0
25/11:30am 8.5 6.6 4.7 77 1.7 ESE 4 7 2 4 1027.7 1027.8 0.0
25/11:00am 8.3 5.8 4.5 77 1.7 SSE 7 13 4 7 1028.3 1028.5 0.0
25/10:30am 7.9 5.9 4.3 78 1.6 S 4 7 2 4 1028.6 1028.8 0.0
25/10:00am 7.7 4.4 4.3 79 1.5 SW 11 20 6 11 1029.0 1029.2 0.0
25/09:30am 7.5 4.1 3.9 78 1.6 SSW 11 17 6 9 1029.1 1029.3 0.0
25/09:00am 7.2 4.2 4.0 80 1.4 SSW 9 17 5 9 1028.8 1029.0 0.2
25/08:30am 6.9 4.2 3.7 80 1.4 SSW 7 15 4 8 1028.7 1028.9 0.2
25/08:00am 6.9 3.5 3.9 81 1.3 S 11 20 6 11 1028.3 1028.5 0.2
25/07:30am 6.8 3.8 4.1 83 1.2 S 9 15 5 8 1028.0 1028.2 0.2
25/07:00am 6.7 3.7 3.9 82 1.2 SSE 9 19 5 10 1027.6 1027.7 0.2
25/06:30am 6.6 4.1 3.8 82 1.2 SSW 6 11 3 6 1027.0 1027.2 0.2
25/06:00am 6.3 4.5 3.5 82 1.2 S 2 9 1 5 1026.6 1026.8 0.2
25/05:30am 6.3 3.1 3.3 81 1.3 SSE 9 17 5 9 1026.4 1026.6 0.2
25/05:00am 6.5 3.4 3.5 81 1.3 S 9 15 5 8 1026.3 1026.5 0.2
25/04:30am 6.8 3.8 4.3 84 1.1 SSW 9 17 5 9 1026.2 1026.4 0.2
25/04:00am 6.5 3.3 3.3 80 1.4 S 9 20 5 11 1026.3 1026.5 0.2
25/03:30am 6.7 3.3 3.9 82 1.2 SSW 11 19 6 10 1026.5 1026.7 0.2
25/03:00am 7.0 3.7 4.5 84 1.1 SSW 11 20 6 11 1026.5 1026.7 0.2
25/02:30am 6.9 3.5 3.9 81 1.3 S 11 22 6 12 1026.6 1026.8 0.2
25/02:00am 6.8 2.6 3.6 80 1.4 SSW 15 24 8 13 1026.6 1026.8 0.2
25/01:30am 6.9 2.7 3.9 81 1.3 SSW 15 26 8 14 1026.5 1026.7 0.2
25/01:00am 7.0 2.8 4.0 81 1.3 SSW 15 20 8 11 1026.5 1026.7 0.2
25/12:30am 7.2 3.5 4.5 83 1.2 SSW 13 20 7 11 1026.4 1026.6 0.2
25/12:00am 7.1 2.7 4.6 84 1.1 SSW 17 26 9 14 1026.4 1026.6 0.2
 
Date/Time
EST
Temp
°C
App
Temp
°C
Dew
Point
°C
Rel
Hum
%
Delta-T
°C
Wind Press
QNH
hPa
Press
MSL
hPa
Rain since
9am
mm
Dir  Spd
km/h
Gust
km/h
Spd
kts
Gust
kts
24/11:30pm 7.1 3.0 4.4 83 1.2 SSW 15 24 8 13 1026.6 1026.8 0.2
24/11:00pm 7.0 3.2 4.1 82 1.3 SSW 13 24 7 13 1026.5 1026.7 0.2
24/10:30pm 7.1 2.6 4.4 83 1.2 SSW 17 22 9 12 1026.5 1026.7 0.2
24/10:00pm 7.0 2.9 4.1 82 1.3 S 15 28 8 15 1026.5 1026.7 0.2
24/09:30pm 7.0 2.9 4.3 83 1.2 SSW 15 24 8 13 1026.1 1026.3 0.2
24/09:00pm 7.2 3.5 4.7 84 1.1 S 13 20 7 11 1026.0 1026.2 0.2
24/08:30pm 7.2 3.5 4.5 83 1.2 S 13 24 7 13 1025.9 1026.1 0.2
24/08:00pm 7.2 3.1 4.3 82 1.3 S 15 28 8 15 1025.9 1026.1 0.2
24/07:30pm 7.1 3.0 4.2 82 1.3 S 15 26 8 14 1025.7 1025.9 0.2
24/07:00pm 7.2 3.9 4.3 82 1.3 S 11 20 6 11 1025.4 1025.6 0.2
24/06:30pm 7.1 3.0 4.6 84 1.1 S 15 24 8 13 1025.2 1025.4 0.2
24/06:00pm 7.2 2.8 4.7 84 1.1 SSW 17 24 9 13 1025.0 1025.2 0.2
24/05:30pm 7.1 3.0 4.4 83 1.2 S 15 28 8 15 1024.8 1025.0 0.2
24/05:00pm 7.2 2.8 4.7 84 1.1 SSW 17 28 9 15 1024.5 1024.7 0.2
24/04:30pm 7.2 1.8 4.3 82 1.3 SSW 22 30 12 16 1024.6 1024.8 0.2
24/04:00pm 7.1 2.1 4.4 83 1.2 SSW 20 32 11 17 1024.4 1024.6 0.2
24/03:30pm 7.3 1.8 4.1 80 1.4 SSW 22 33 12 18 1024.3 1024.5 0.2
24/03:00pm 7.4 3.0 4.7 83 1.2 SSW 17 28 9 15 1024.1 1024.2 0.2
24/02:30pm 7.6 2.8 4.6 81 1.3 SSW 19 30 10 16 1024.2 1024.4 0.2
24/02:00pm 7.5 2.7 4.6 82 1.3 S 19 30 10 16 1024.2 1024.4 0.2
24/01:30pm 7.6 3.3 5.2 85 1.1 SSW 17 28 9 15 1024.3 1024.5 0.2
24/01:00pm 7.5 3.6 5.5 87 0.9 SSW 15 24 8 13 1024.0 1024.1 0.2
24/12:30pm 7.5 2.9 5.5 87 0.9 S 19 28 10 15 1024.0 1024.1 0.2
24/12:00pm 7.5 3.7 5.8 89 0.8 S 15 30 8 16 1024.0 1024.1 0.2
24/11:30am 7.4 3.3 6.3 93 0.5 S 17 28 9 15 1024.1 1024.2 0.2
24/11:00am 7.5 3.6 6.9 96 0.3 S 17 30 9 16 1023.9 1024.0 0.2
24/10:30am 7.4 2.9 7.1 98 0.1 S 20 32 11 17 1023.7 1023.8 0.2
24/10:00am 7.5 3.3 7.4 99 0.0 S 19 30 10 16 1023.3 1023.4 0.2
24/09:30am 7.8 3.4 7.5 98 0.1 S 20 37 11 20 1023.0 1023.2 0.0
24/09:00am 8.0 4.2 7.7 98 0.1 S 17 28 9 15 1022.8 1023.0 2.4
24/08:30am 7.7 3.5 7.3 97 0.2 S 19 32 10 17 1022.6 1022.8 2.4
24/08:00am 7.9 4.4 7.3 96 0.3 S 15 28 8 15 1022.2 1022.4 2.4
24/07:30am 7.5 3.2 7.2 98 0.1 S 19 32 10 17 1021.9 1022.1 2.4
24/07:00am 7.4 3.0 7.3 99 0.0 S 20 39 11 21 1021.4 1021.6 2.4
24/06:30am 7.9 3.6 7.8 99 0.0 S 20 32 11 17 1020.9 1021.1 2.4
24/06:00am 8.0 3.9 7.9 99 0.0 SSW 19 32 10 17 1020.6 1020.7 2.0
24/05:30am 7.9 2.4 7.5 97 0.2 SSW 26 35 14 19 1020.2 1020.3 1.8
24/05:00am 7.6 1.6 7.0 96 0.3 SSW 28 41 15 22 1020.0 1020.1 1.8
24/04:30am 7.5 1.8 6.8 95 0.3 SSW 26 39 14 21 1019.8 1019.9 1.8
24/04:00am 7.7 0.9 7.1 96 0.3 SSW 32 43 17 23 1019.6 1019.7 1.8
24/03:30am 7.5 1.5 6.9 96 0.3 SSW 28 41 15 22 1019.5 1019.6 1.8
24/03:00am 7.8 1.5 7.2 96 0.3 SSW 30 39 16 21 1019.7 1019.8 1.8
24/02:30am 7.4 1.0 6.8 96 0.3 SSW 30 43 16 23 1019.7 1019.8 1.8
24/02:00am 7.3 0.5 6.7 96 0.3 SSW 32 44 17 24 1019.5 1019.6 1.8
24/01:30am 7.3 0.0 7.0 98 0.1 SSW 35 50 19 27 1019.2 1019.3 1.8
24/01:07am 7.2 0.8 6.9 98 0.1 SSW 30 48 16 26 1019.2 1019.3 1.8
24/01:00am 7.2 0.4 6.9 98 0.1 SSW 32 48 17 26 1019.0 1019.1 1.8
24/12:30am 7.1 1.0 6.8 98 0.1 SSW 28 56 15 30 1019.0 1019.1 1.6
24/12:15am 7.7 1.8 7.4 98 0.1 SW 28 48 15 26 1018.9 1019.0 1.6
24/12:00am 7.5 2.3 7.1 97 0.2 SSW 24 41 13 22 1018.9 1019.0 1.2
 
Date/Time
EST
Temp
°C
App
Temp
°C
Dew
Point
°C
Rel
Hum
%
Delta-T
°C
Wind Press
QNH
hPa
Press
MSL
hPa
Rain since
9am
mm
Dir  Spd
km/h
Gust
km/h
Spd
kts
Gust
kts
23/11:39pm 7.6 1.6 7.0 96 0.3 SSW 28 48 15 26 1018.6 1018.8 1.2
23/11:30pm 7.7 1.8 7.3 97 0.2 SSW 28 41 15 22 1018.6 1018.8 1.2
23/11:27pm 7.8 1.8 7.2 96 0.3 SSW 28 48 15 26 1018.6 1018.8 1.2
23/11:00pm 8.1 1.3 6.7 91 0.7 SSW 32 46 17 25 1018.4 1018.6 0.6
23/10:30pm 8.8 2.1 3.4 69 2.4 SW 28 50 15 27 1018.2 1018.4 0.6
23/10:01pm 8.8 2.1 3.6 70 2.3 SSW 28 46 15 25 1018.3 1018.5 0.6
23/10:00pm 8.8 2.4 3.4 69 2.3 SSW 26 46 14 25 1018.3 1018.5 0.6
23/09:30pm 8.7 1.1 3.7 71 2.2 SW 33 56 18 30 1018.2 1018.4 0.6
23/09:05pm 8.8 1.6 5.2 78 1.6 SSW 32 52 17 28 1018.0 1018.2 0.6
23/09:00pm 8.8 1.6 5.7 81 1.4 SSW 33 48 18 26 1018.0 1018.2 0.6
23/08:31pm 8.8 1.4 4.0 72 2.1 SSW 32 52 17 28 1017.8 1018.0 0.6
23/08:30pm 8.8 1.8 4.0 72 2.1 SSW 30 46 16 25 1017.8 1018.0 0.6
23/08:03pm 8.1 1.9 6.2 88 0.9 SSW 28 50 15 27 1017.7 1017.9 0.6
23/08:00pm 8.0 1.9 6.8 92 0.6 SSW 28 46 15 25 1017.6 1017.8 0.6
23/07:30pm 8.7 1.9 7.9 95 0.4 SSW 33 57 18 31 1017.2 1017.4 0.4
23/07:00pm 8.4 1.1 7.3 93 0.5 SSW 35 57 19 31 1017.1 1017.2 0.4
23/06:30pm 9.0 3.2 7.8 92 0.6 SSW 28 50 15 27 1016.9 1017.0 0.4
23/06:00pm 8.8 2.1 7.3 90 0.7 SSW 32 54 17 29 1016.7 1016.8 0.4

Latest Capital City Observations: Canberra | Sydney | Melbourne | Brisbane | Adelaide | Perth | Hobart | Darwin

Other formats

Comma delimited format used in spreadsheet applications
http://www.bom.gov.au/fwo/IDT60901/IDT60901.95986.axf

JavaScript Object Notation format (JSON) in row-major order
http://www.bom.gov.au/fwo/IDT60901/IDT60901.95986.json

Data quality

Most of these data are generated automatically and are frequently updated. Quality checks on data are not normally performed. It is possible for incorrect values to appear. Refer to information at About Latest Weather Observations and please check the disclaimer before using these data.